Aérodrome :
LOGIN :

S'inscrire | Disclaimer

   EN    FR    IT 

 










Légende :    VFR   VFR Marginal   IFR   IFR Intensif   IFR Très Intensif
Visi : 
Plafond : 
>= 8 km
>= 3000ft
5 à 8 km
1000 à 3000 ft
1500m à 5 km
500 à 1000 ft
800 à 1500m
200 à 500 ft
< 800m
< 200 ft
Symboles :   Orages  Brouillard  Fortes neiges  Fortes précipitations  Vent > 20 kt
SIGMETs :   Divers  Orages  Givrage  Turbulence  Onde Orograph.  Cendres Volcan.






- Altitude de l'aérodrome : 373 ft
- Code IATA : OZH


UKDE - Mokraya

DERNIER METAR :
  • 221500Z 24007MPS 9999 -RA OVC012 02/00 Q1008 R20L/090070 TEMPO 25010G15MPS

METARs EXPIRÉS :
  • 221430Z 24007MPS 9999 OVC013 02/M00 Q1009 R20L/090070 TEMPO 25010G15MPS
  • 221400Z 24006MPS 9999 OVC013 02/M00 Q1009 R20L/090070 TEMPO 27009G14MPS
  • 221330Z 24007MPS 9999 OVC010 02/M00 Q1009 R20L/090070 TEMPO 27009G14MPS
  • 221300Z 23007MPS 9999 OVC009 01/M00 Q1009 R20L/090070 TEMPO 27009G14MPS
  • 221230Z 24006MPS 8000 -RA OVC009 02/00 Q1010 R20L/090070 TEMPO 27009G14MPS

TAF TAF UKDE
Valide du 22 à 15h jusqu'au 23 à 00h UTC


221406Z 2215/2224 24008MPS 6000 BKN009 TX02/2215Z TN00/2224Z
TEMPO 2215/2220 25010G15MPS 1000 RA OVC003
TEMPO 2220/2224 27012G17MPS 1000 SHRASN BKN003 BKN015CB



MET'MAP, la Météo Aéronautique d'un coup d'oeil ! - Copyright ORBIFLY Décembre 2007 - Disclaimer

ORBIFLY MET'MAP TEAM :

Programmation & Développement : Alexandra Zaïnal
Sur une idée originale de : Baudouin d'Aumeries
Assistance à la programmation : Marc-Olivier Méhu
Soutien technique & logistique : Manuel Goepfert

Contact : metmap@orbifly.com




SOURCES & CREDITS :

   NOAA